Kenefic, Oklahoma
Current Conditions -  °F | °C
As of 9:15 PM on Wednesday 22 Oct 2014 (Local Time) from KDUA Reporting Station
Clear Clear  
Wind Chill: 66°   Ceiling: Unl
Heat Index: 66°   Visibility: 10mi
Dew Point: 57°   Wind: 6mph
Humidity: 73%   Direction: 130°SE
Pressure: 30.13"   Gusts: NA
Location:  34.15°N, 96.36°W
Report Text: KDUA 230215Z AUTO 13005KT 10SM CLR 19/14 A3013 RMK AO2
Loading
Personal Weather Stations






























Interactive Weather Map
Tropical Storm Tracking
New forecast layout! Learn more

10-Day Weather Forecast

Advertisements
Track Severe Weather on mobile